createdAt,value
2019-01-29T00:01:03.918Z,11.63
2019-01-29T00:03:32.992Z,11.15
2019-01-29T00:06:02.050Z,10.28
2019-01-29T00:08:31.093Z,14.00
2019-01-29T00:11:00.185Z,15.03
2019-01-29T00:13:29.235Z,11.73
2019-01-29T00:15:58.270Z,20.85
2019-01-29T00:18:27.349Z,20.27
2019-01-29T00:20:56.424Z,11.48
2019-01-29T00:23:25.497Z,17.80
2019-01-29T00:25:54.555Z,14.55
2019-01-29T00:28:23.689Z,12.90
2019-01-29T00:30:52.733Z,11.30
2019-01-29T00:33:21.810Z,10.40
2019-01-29T00:35:50.851Z,10.40
2019-01-29T00:38:19.903Z,12.28
2019-01-29T00:40:48.945Z,13.30
2019-01-29T00:43:18.913Z,11.03
2019-01-29T00:45:47.918Z,11.80
2019-01-29T00:48:16.956Z,10.15
2019-01-29T00:50:46.104Z,11.18
2019-01-29T00:53:15.132Z,10.82
2019-01-29T00:55:44.194Z,10.32
2019-01-29T00:58:13.254Z,11.95
2019-01-29T01:00:42.327Z,10.50
2019-01-29T01:03:30.588Z,11.63
2019-01-29T01:05:59.625Z,9.50
2019-01-29T01:08:28.815Z,11.10
2019-01-29T01:10:57.849Z,9.90
2019-01-29T01:13:26.892Z,11.90
2019-01-29T01:15:56.032Z,10.93
2019-01-29T01:18:25.090Z,9.13
2019-01-29T01:20:54.126Z,9.45
2019-01-29T01:23:23.192Z,9.75
2019-01-29T01:25:52.229Z,9.50
2019-01-29T01:28:21.257Z,9.08
2019-01-29T01:30:50.334Z,9.08
2019-01-29T01:33:19.365Z,10.58
2019-01-29T01:35:48.444Z,8.50
2019-01-29T01:38:17.479Z,8.00
2019-01-29T01:40:46.521Z,8.13
2019-01-29T01:43:15.575Z,7.85
2019-01-29T01:45:44.631Z,7.75
2019-01-29T01:48:13.710Z,7.10
2019-01-29T01:50:42.711Z,8.20
2019-01-29T01:53:11.751Z,7.62
2019-01-29T01:55:40.799Z,7.50
2019-01-29T01:58:09.839Z,8.25
2019-01-29T02:00:38.909Z,6.70
2019-01-29T02:03:07.989Z,7.25
2019-01-29T02:05:37.020Z,7.03
2019-01-29T02:08:06.182Z,6.28
2019-01-29T02:10:35.244Z,7.37
2019-01-29T02:13:04.334Z,7.05
2019-01-29T02:15:33.412Z,8.08
2019-01-29T02:18:02.432Z,7.90
2019-01-29T02:20:31.505Z,10.32
2019-01-29T02:23:07.751Z,7.83
2019-01-29T02:25:31.295Z,6.80
2019-01-29T02:28:00.323Z,6.12
2019-01-29T02:30:29.359Z,6.60
2019-01-29T02:32:58.420Z,6.37
2019-01-29T02:35:27.495Z,6.50
2019-01-29T02:37:56.563Z,5.83
2019-01-29T02:40:27.199Z,6.35
2019-01-29T02:42:56.257Z,5.50
2019-01-29T02:45:25.613Z,5.75
2019-01-29T02:47:54.606Z,6.20
2019-01-29T02:50:23.706Z,5.95
2019-01-29T02:52:52.704Z,6.40
2019-01-29T02:55:21.715Z,5.45
2019-01-29T02:57:50.708Z,5.72
2019-01-29T03:00:21.588Z,5.90
2019-01-29T03:02:50.572Z,6.30
2019-01-29T03:05:19.828Z,5.33
2019-01-29T03:07:48.839Z,5.47
2019-01-29T03:10:19.953Z,6.67
2019-01-29T03:12:48.953Z,5.50
2019-01-29T03:15:20.574Z,5.90
2019-01-29T03:17:49.555Z,5.50
2019-01-29T03:20:18.649Z,6.67
2019-01-29T03:22:47.645Z,5.37
2019-01-29T03:25:16.654Z,6.58
2019-01-29T03:27:45.671Z,5.83
2019-01-29T03:30:16.049Z,6.58
2019-01-29T03:32:45.081Z,6.80
2019-01-29T03:35:14.176Z,6.22
2019-01-29T03:37:43.259Z,7.30
2019-01-29T03:40:14.696Z,7.85
2019-01-29T03:42:43.695Z,7.12
2019-01-29T03:45:14.839Z,7.22
2019-01-29T03:47:43.935Z,7.45
2019-01-29T03:50:14.238Z,7.60
2019-01-29T03:52:43.317Z,7.65
2019-01-29T03:55:12.337Z,7.33
2019-01-29T03:57:41.383Z,7.70
2019-01-29T04:00:16.060Z,7.30
2019-01-29T04:05:13.214Z,6.60
2019-01-29T04:07:42.209Z,6.67
2019-01-29T04:10:12.192Z,7.08
2019-01-29T04:12:41.224Z,6.87
2019-01-29T04:15:14.294Z,6.40
2019-01-29T04:17:43.349Z,6.33
2019-01-29T04:20:14.739Z,6.42
2019-01-29T04:22:45.775Z,6.87
2019-01-29T04:25:14.494Z,5.67
2019-01-29T04:27:43.634Z,7.05
2019-01-29T04:30:15.305Z,7.40
2019-01-29T04:32:45.531Z,6.08
2019-01-29T04:35:14.529Z,6.67
2019-01-29T04:37:43.553Z,6.85
2019-01-29T04:40:14.042Z,6.35
2019-01-29T04:42:43.031Z,6.83
2019-01-29T04:45:12.680Z,7.12
2019-01-29T04:47:41.673Z,7.50
2019-01-29T04:50:13.063Z,6.67
2019-01-29T04:52:42.243Z,6.72
2019-01-29T04:55:12.148Z,6.17
2019-01-29T04:57:41.210Z,6.42
2019-01-29T05:00:13.284Z,6.53
2019-01-29T05:02:42.327Z,6.95
2019-01-29T05:05:11.407Z,6.33
2019-01-29T05:07:40.409Z,6.62
2019-01-29T05:10:10.667Z,6.60
2019-01-29T05:12:39.716Z,6.42
2019-01-29T05:15:11.080Z,7.42
2019-01-29T05:17:40.104Z,8.48
2019-01-29T05:20:11.448Z,7.17
2019-01-29T05:22:40.488Z,8.45
2019-01-29T05:25:09.578Z,9.40
2019-01-29T05:27:38.604Z,10.23
2019-01-29T05:30:12.115Z,8.58
2019-01-29T05:32:41.090Z,10.68
2019-01-29T05:35:10.220Z,9.18
2019-01-29T05:37:39.239Z,10.58
2019-01-29T05:40:11.899Z,9.33
2019-01-29T05:42:40.925Z,11.50
2019-01-29T05:45:11.618Z,9.25
2019-01-29T05:47:40.669Z,9.33
2019-01-29T05:50:10.636Z,9.73
2019-01-29T05:52:39.669Z,8.20
2019-01-29T05:55:09.123Z,8.25
2019-01-29T05:57:38.134Z,7.17
2019-01-29T06:00:10.017Z,7.85
2019-01-29T06:02:39.133Z,7.50
2019-01-29T06:05:08.397Z,6.83
2019-01-29T06:07:37.431Z,7.10
2019-01-29T06:10:07.058Z,7.33
2019-01-29T06:12:36.070Z,6.58
2019-01-29T06:15:05.936Z,7.22
2019-01-29T06:17:34.963Z,7.20
2019-01-29T06:20:04.183Z,8.10
2019-01-29T06:22:33.245Z,7.28
2019-01-29T06:25:02.347Z,6.17
2019-01-29T06:27:31.360Z,6.03
2019-01-29T06:30:00.354Z,5.90
2019-01-29T06:32:29.492Z,6.37
2019-01-29T06:34:58.486Z,6.30
2019-01-29T06:37:27.470Z,6.45
2019-01-29T06:39:56.547Z,7.25
2019-01-29T06:42:25.602Z,6.90
2019-01-29T06:44:54.666Z,7.55
2019-01-29T06:47:23.743Z,6.55
2019-01-29T06:49:52.773Z,7.42
2019-01-29T06:52:21.798Z,7.80
2019-01-29T06:54:50.866Z,7.22
2019-01-29T06:57:19.867Z,6.87
2019-01-29T06:59:48.881Z,7.10
2019-01-29T07:02:17.899Z,7.30
2019-01-29T07:04:46.913Z,7.28
2019-01-29T07:07:15.944Z,6.75
2019-01-29T07:09:45.057Z,7.67
2019-01-29T07:12:14.058Z,8.98
2019-01-29T07:14:43.110Z,10.20
2019-01-29T07:17:28.859Z,7.85
2019-01-29T07:20:00.662Z,8.23
2019-01-29T07:22:29.701Z,9.98
2019-01-29T07:24:58.778Z,8.53
2019-01-29T07:27:27.884Z,9.53
2019-01-29T07:29:56.904Z,9.78
2019-01-29T07:32:25.956Z,10.32
2019-01-29T07:34:55.086Z,11.10
2019-01-29T07:37:24.200Z,16.57
2019-01-29T07:39:53.296Z,48.63
2019-01-29T07:42:22.404Z,11.55
2019-01-29T07:44:51.412Z,11.08
2019-01-29T07:47:21.204Z,11.00
2019-01-29T07:49:50.553Z,11.55
2019-01-29T07:52:19.614Z,12.40
2019-01-29T07:54:51.217Z,13.10
2019-01-29T07:57:19.537Z,10.93
2019-01-29T07:59:48.606Z,11.08
2019-01-29T08:02:17.646Z,12.25
2019-01-29T08:04:46.797Z,11.18
2019-01-29T08:07:15.917Z,9.75
2019-01-29T08:09:45.115Z,10.90
2019-01-29T08:12:14.175Z,12.18
2019-01-29T08:14:43.257Z,11.18
2019-01-29T08:17:12.313Z,11.55
2019-01-29T08:19:41.419Z,11.38
2019-01-29T08:22:10.445Z,10.88
2019-01-29T08:24:39.522Z,9.85
2019-01-29T08:27:08.704Z,12.28
2019-01-29T08:29:37.780Z,11.08
2019-01-29T08:32:06.935Z,10.40
2019-01-29T08:34:36.228Z,11.00
2019-01-29T08:37:05.341Z,12.58
2019-01-29T08:39:34.426Z,11.95
2019-01-29T08:42:03.494Z,11.63
2019-01-29T08:44:32.513Z,12.10
2019-01-29T08:47:01.578Z,12.65
2019-01-29T08:49:30.669Z,12.37
2019-01-29T08:51:59.814Z,12.23
2019-01-29T08:54:28.886Z,12.40
2019-01-29T08:57:00.835Z,12.63
2019-01-29T08:59:29.855Z,12.78
2019-01-29T09:01:59.038Z,15.58
2019-01-29T09:04:28.148Z,17.05
2019-01-29T09:06:57.224Z,14.68
2019-01-29T09:09:26.267Z,19.25
2019-01-29T09:11:55.385Z,15.90
2019-01-29T09:14:24.429Z,19.07
2019-01-29T09:16:53.482Z,19.77
2019-01-29T09:19:22.577Z,21.42
2019-01-29T09:21:51.653Z,23.00
2019-01-29T09:24:20.727Z,20.55
2019-01-29T09:26:49.743Z,23.62
2019-01-29T09:29:18.786Z,25.62
2019-01-29T09:31:47.807Z,23.85
2019-01-29T09:34:16.853Z,23.40
2019-01-29T09:36:45.871Z,25.70
2019-01-29T09:39:14.864Z,25.85
2019-01-29T09:41:43.954Z,28.32
2019-01-29T09:44:12.936Z,29.65
2019-01-29T09:46:41.928Z,27.95
2019-01-29T09:49:11.328Z,27.95
2019-01-29T09:51:40.448Z,26.93
2019-01-29T09:54:09.463Z,30.70
2019-01-29T09:56:38.510Z,33.38
2019-01-29T09:59:07.544Z,31.80
2019-01-29T10:01:36.579Z,29.25
2019-01-29T10:04:05.738Z,30.27
2019-01-29T10:06:34.774Z,32.78
2019-01-29T10:09:06.861Z,27.50
2019-01-29T10:11:37.977Z,31.52
2019-01-29T10:14:07.196Z,28.60
2019-01-29T10:16:36.269Z,32.63
2019-01-29T10:19:05.529Z,30.70
2019-01-29T10:21:34.610Z,31.40
2019-01-29T10:24:03.667Z,34.18
2019-01-29T10:26:32.753Z,31.15
2019-01-29T10:29:01.733Z,30.97
2019-01-29T10:31:30.811Z,28.32
2019-01-29T10:33:59.879Z,30.27
2019-01-29T10:36:28.917Z,25.43
2019-01-29T10:38:57.904Z,25.70
2019-01-29T10:41:26.902Z,24.23
2019-01-29T10:43:55.908Z,22.25
2019-01-29T10:46:24.912Z,21.87
2019-01-29T10:48:53.929Z,23.85
2019-01-29T10:51:22.904Z,23.92
2019-01-29T10:53:52.071Z,20.70
2019-01-29T10:56:21.137Z,19.37
2019-01-29T10:58:50.144Z,21.70
2019-01-29T11:01:19.152Z,20.43
2019-01-29T11:03:48.272Z,21.80
2019-01-29T11:06:17.258Z,19.80
2019-01-29T11:08:46.302Z,21.57
2019-01-29T11:11:21.235Z,19.48
2019-01-29T11:13:50.200Z,20.60
2019-01-29T11:16:21.216Z,21.30
2019-01-29T11:19:03.185Z,20.25
2019-01-29T11:21:28.243Z,20.72
2019-01-29T11:23:57.272Z,15.93
2019-01-29T11:26:26.359Z,20.95
2019-01-29T11:29:01.541Z,18.98
2019-01-29T11:31:35.603Z,18.75
2019-01-29T11:34:04.917Z,18.80
2019-01-29T11:36:35.732Z,19.30
2019-01-29T11:39:08.103Z,17.87
2019-01-29T11:41:37.045Z,18.27
2019-01-29T11:44:29.863Z,19.87
2019-01-29T11:46:59.102Z,18.45
2019-01-29T11:49:31.490Z,16.57
2019-01-29T11:52:02.337Z,15.38
2019-01-29T11:54:31.458Z,17.05
2019-01-29T11:57:00.558Z,16.00
2019-01-29T11:59:29.590Z,15.98
2019-01-29T12:01:58.604Z,16.27
2019-01-29T12:04:27.828Z,17.67
2019-01-29T12:06:56.844Z,16.48
2019-01-29T12:09:25.873Z,16.75
2019-01-29T12:11:54.862Z,16.37
2019-01-29T12:14:23.910Z,15.60
2019-01-29T12:16:52.930Z,15.58
2019-01-29T12:19:22.093Z,15.18
2019-01-29T12:21:51.089Z,15.45
2019-01-29T12:24:20.101Z,16.35
2019-01-29T12:26:49.121Z,17.23
2019-01-29T12:29:18.160Z,16.02
2019-01-29T12:31:47.132Z,16.90
2019-01-29T12:34:20.533Z,17.12
2019-01-29T12:36:49.561Z,17.82
2019-01-29T12:39:18.562Z,17.75
2019-01-29T12:41:47.556Z,18.37
2019-01-29T12:44:16.571Z,16.82
2019-01-29T12:46:45.569Z,17.67
2019-01-29T12:49:14.597Z,14.87
2019-01-29T12:52:05.446Z,16.97
2019-01-29T12:54:34.574Z,17.45
2019-01-29T12:57:03.587Z,17.32
2019-01-29T12:59:32.626Z,18.75
2019-01-29T13:02:01.666Z,17.42
2019-01-29T13:04:30.670Z,18.17
2019-01-29T13:07:00.130Z,18.55
2019-01-29T13:09:29.180Z,17.85
2019-01-29T13:11:58.238Z,17.02
2019-01-29T13:14:27.284Z,19.15
2019-01-29T13:16:56.283Z,18.87
2019-01-29T13:19:25.319Z,18.65
2019-01-29T13:21:54.344Z,18.55
2019-01-29T13:24:23.375Z,18.92
2019-01-29T13:26:52.447Z,19.37
2019-01-29T13:29:21.510Z,18.12
2019-01-29T13:31:50.542Z,18.92
2019-01-29T13:34:19.590Z,19.62
2019-01-29T13:36:48.653Z,18.32
2019-01-29T13:39:18.041Z,17.90
2019-01-29T13:41:47.039Z,17.90
2019-01-29T13:44:16.023Z,17.48
2019-01-29T13:46:45.015Z,17.48
2019-01-29T13:49:14.173Z,15.85
2019-01-29T13:51:43.243Z,16.40
2019-01-29T13:54:12.279Z,16.67
2019-01-29T13:56:45.347Z,14.90
2019-01-29T13:59:14.413Z,13.53
2019-01-29T14:01:43.445Z,14.63
2019-01-29T14:04:12.475Z,14.35
2019-01-29T14:06:41.506Z,11.63
2019-01-29T14:09:10.573Z,12.98
2019-01-29T14:11:39.703Z,13.48
2019-01-29T14:14:08.718Z,12.85
2019-01-29T14:16:37.832Z,11.95
2019-01-29T14:19:10.026Z,14.65
2019-01-29T14:21:39.072Z,11.30
2019-01-29T14:24:08.062Z,11.95
2019-01-29T14:26:37.153Z,12.58
2019-01-29T14:29:06.327Z,10.55
2019-01-29T14:31:35.383Z,11.12
2019-01-29T14:34:04.655Z,11.30
2019-01-29T14:36:33.632Z,11.12
2019-01-29T14:39:54.337Z,12.53
2019-01-29T14:42:23.380Z,11.53
2019-01-29T14:44:53.975Z,10.00
2019-01-29T14:47:23.000Z,11.05
2019-01-29T14:49:52.123Z,10.78
2019-01-29T14:52:21.239Z,9.40
2019-01-29T14:54:50.296Z,10.90
2019-01-29T14:57:19.415Z,9.10
2019-01-29T14:59:48.473Z,9.88
2019-01-29T15:02:17.559Z,11.30
2019-01-29T15:04:46.718Z,11.08
2019-01-29T15:07:15.888Z,9.83
2019-01-29T15:09:44.935Z,13.30
2019-01-29T15:12:14.053Z,14.03
2019-01-29T15:14:43.143Z,12.50
2019-01-29T15:17:36.531Z,11.33
2019-01-29T15:20:06.783Z,12.43
2019-01-29T15:22:35.938Z,12.70
2019-01-29T15:25:05.750Z,9.98
2019-01-29T15:27:35.128Z,12.25
2019-01-29T15:30:04.422Z,12.00
2019-01-29T15:32:33.486Z,11.73
2019-01-29T15:35:02.613Z,11.22
2019-01-29T15:37:31.761Z,10.85
2019-01-29T15:40:00.895Z,36.42
2019-01-29T15:42:30.108Z,48.45
2019-01-29T15:44:59.187Z,14.40
2019-01-29T15:47:28.447Z,11.75
2019-01-29T15:50:26.617Z,13.28
2019-01-29T15:52:58.857Z,11.95
2019-01-29T15:55:27.939Z,11.15
2019-01-29T15:57:57.241Z,11.05
2019-01-29T16:00:28.239Z,10.10
2019-01-29T16:02:57.379Z,18.85
2019-01-29T16:05:27.399Z,16.97
2019-01-29T16:07:56.520Z,10.58
2019-01-29T16:10:28.260Z,12.23
2019-01-29T16:12:57.404Z,11.40
2019-01-29T16:15:26.540Z,13.65
2019-01-29T16:17:55.756Z,12.70
2019-01-29T16:20:25.020Z,14.80
2019-01-29T16:22:54.192Z,10.08
2019-01-29T16:25:23.401Z,9.45
2019-01-29T16:27:52.592Z,9.18
2019-01-29T16:30:26.276Z,8.98
2019-01-29T16:32:55.418Z,8.88
2019-01-29T16:35:33.449Z,9.18
2019-01-29T16:38:02.886Z,10.95
2019-01-29T16:40:32.019Z,6.65
2019-01-29T16:43:01.188Z,5.50
2019-01-29T16:45:31.935Z,6.35
2019-01-29T16:48:01.088Z,6.10
2019-01-29T16:50:30.192Z,5.95
2019-01-29T16:52:59.463Z,5.90
2019-01-29T16:55:28.540Z,6.42
2019-01-29T16:57:57.648Z,6.22
2019-01-29T17:00:28.271Z,6.17
2019-01-29T17:02:58.279Z,8.30
2019-01-29T17:05:27.407Z,8.25
2019-01-29T17:07:56.487Z,7.20
2019-01-29T17:10:25.588Z,8.25
2019-01-29T17:12:54.699Z,7.33
2019-01-29T17:15:28.221Z,8.05
2019-01-29T17:17:58.621Z,7.78
2019-01-29T17:20:37.939Z,7.62
2019-01-29T17:23:07.685Z,7.40
2019-01-29T17:25:36.749Z,6.95
2019-01-29T17:28:07.480Z,7.72
2019-01-29T17:30:41.386Z,6.72
2019-01-29T17:33:11.437Z,6.67
2019-01-29T17:35:41.283Z,5.67
2019-01-29T17:38:10.386Z,5.47
2019-01-29T17:40:39.508Z,6.47
2019-01-29T17:43:08.758Z,7.45
2019-01-29T17:45:40.687Z,7.70
2019-01-29T17:48:09.938Z,6.92
2019-01-29T17:50:40.570Z,11.20
2019-01-29T17:53:09.762Z,10.18
2019-01-29T17:55:40.288Z,10.38
2019-01-29T17:58:10.415Z,9.55
2019-01-29T18:00:41.298Z,15.75
2019-01-29T18:03:10.413Z,16.55
2019-01-29T18:05:39.601Z,9.50
2019-01-29T18:08:08.875Z,10.28
2019-01-29T18:10:38.083Z,10.53
2019-01-29T18:13:07.341Z,9.38
2019-01-29T18:15:36.758Z,19.60
2019-01-29T18:18:07.735Z,12.85
2019-01-29T18:20:36.951Z,21.62
2019-01-29T18:23:06.185Z,21.73
2019-01-29T18:25:35.345Z,19.62
2019-01-29T18:28:04.590Z,20.95
2019-01-29T18:30:33.877Z,21.40
2019-01-29T18:33:03.404Z,16.45
2019-01-29T18:35:32.649Z,16.52
2019-01-29T18:38:01.786Z,17.70
2019-01-29T18:40:37.446Z,18.77
2019-01-29T18:43:06.723Z,18.27
2019-01-29T18:45:37.988Z,14.53
2019-01-29T18:48:07.082Z,14.45
2019-01-29T18:50:36.643Z,13.55
2019-01-29T18:53:08.140Z,14.07
2019-01-29T18:55:37.355Z,15.30
2019-01-29T18:58:12.039Z,14.23
2019-01-29T19:00:38.086Z,15.40
2019-01-29T19:03:07.333Z,13.95
2019-01-29T19:05:36.489Z,14.35
2019-01-29T19:08:05.766Z,12.05
2019-01-29T19:10:35.066Z,13.65
2019-01-29T19:13:04.813Z,12.20
2019-01-29T19:15:34.154Z,11.43
2019-01-29T19:18:03.333Z,10.35
2019-01-29T19:20:32.631Z,13.03
2019-01-29T19:23:02.102Z,11.60
2019-01-29T19:25:31.357Z,12.18
2019-01-29T19:28:00.833Z,11.88
2019-01-29T19:30:31.960Z,19.32
2019-01-29T19:33:01.362Z,18.50
2019-01-29T19:35:30.799Z,17.27
2019-01-29T19:38:00.895Z,17.95
2019-01-29T19:40:30.386Z,17.23
2019-01-29T19:43:00.090Z,21.93
2019-01-29T19:45:31.718Z,22.50
2019-01-29T19:48:01.397Z,20.97
2019-01-29T19:50:31.685Z,18.27
2019-01-29T19:53:00.991Z,21.50
2019-01-29T19:55:30.212Z,21.75
2019-01-29T19:58:08.682Z,21.93
2019-01-29T20:00:33.625Z,23.60
2019-01-29T20:03:08.252Z,20.50
2019-01-29T20:05:37.927Z,22.30
2019-01-29T20:08:09.875Z,17.90
2019-01-29T20:10:42.062Z,16.85
2019-01-29T20:13:11.510Z,18.77
2019-01-29T20:15:40.929Z,19.15
2019-01-29T20:18:13.432Z,13.83
2019-01-29T20:20:42.520Z,16.93
2019-01-29T20:23:11.797Z,19.65
2019-01-29T20:25:40.982Z,20.43
2019-01-29T20:28:10.174Z,16.35
2019-01-29T20:30:40.251Z,16.00
2019-01-29T20:33:09.840Z,18.82
2019-01-29T20:35:39.459Z,18.40
2019-01-29T20:38:10.689Z,18.77
2019-01-29T20:40:40.565Z,19.27
2019-01-29T20:43:10.211Z,16.37
2019-01-29T20:45:41.171Z,15.55
2019-01-29T20:48:10.370Z,16.07
2019-01-29T20:51:05.659Z,14.43
2019-01-29T20:53:36.556Z,15.70
2019-01-29T20:56:06.259Z,19.23
2019-01-29T20:58:35.790Z,16.10
2019-01-29T21:01:05.480Z,16.67
2019-01-29T21:03:34.681Z,18.90
2019-01-29T21:06:04.054Z,15.83
2019-01-29T21:08:33.370Z,15.00
2019-01-29T21:11:02.739Z,17.00
2019-01-29T21:13:31.888Z,15.45
2019-01-29T21:16:01.134Z,15.93
2019-01-29T21:18:30.432Z,15.58
2019-01-29T21:20:59.770Z,14.73
2019-01-29T21:23:29.123Z,14.07
2019-01-29T21:25:58.434Z,13.08
2019-01-29T21:28:28.197Z,12.90
2019-01-29T21:30:57.533Z,14.05
2019-01-29T21:33:26.895Z,13.72
2019-01-29T21:35:56.173Z,14.18
2019-01-29T21:38:26.419Z,12.13
2019-01-29T21:40:55.695Z,11.28
2019-01-29T21:43:24.934Z,13.88
2019-01-29T21:45:54.153Z,14.85
2019-01-29T21:48:23.277Z,13.08
2019-01-29T21:50:52.734Z,15.45
2019-01-29T21:53:22.070Z,14.55
2019-01-29T21:55:51.371Z,15.05
2019-01-29T21:58:20.655Z,16.23
2019-01-29T22:00:49.882Z,13.90
2019-01-29T22:03:19.143Z,13.25
2019-01-29T22:05:48.542Z,15.70
2019-01-29T22:08:17.798Z,16.75
2019-01-29T22:10:46.955Z,15.00
2019-01-29T22:13:16.198Z,15.98
2019-01-29T22:15:45.545Z,15.60
2019-01-29T22:18:15.660Z,20.10
2019-01-29T22:20:44.868Z,19.15
2019-01-29T22:23:14.103Z,16.82
2019-01-29T22:25:43.242Z,16.73
2019-01-29T22:28:12.705Z,19.75
2019-01-29T22:30:43.249Z,17.35
2019-01-29T22:33:14.531Z,16.42
2019-01-29T22:35:45.533Z,17.48
2019-01-29T22:38:14.748Z,15.70
2019-01-29T22:40:43.907Z,14.38
2019-01-29T22:43:13.073Z,16.52
2019-01-29T22:45:42.165Z,16.95
2019-01-29T22:48:11.637Z,15.95
2019-01-29T22:50:42.254Z,17.23
2019-01-29T22:53:11.538Z,13.95
2019-01-29T22:55:40.710Z,15.98
2019-01-29T22:58:09.991Z,14.85
2019-01-29T23:01:05.308Z,17.37
2019-01-29T23:06:42.190Z,15.80
2019-01-29T23:09:12.052Z,14.13
2019-01-29T23:11:41.156Z,15.85
2019-01-29T23:14:10.326Z,17.67
2019-01-29T23:16:39.506Z,17.67
2019-01-29T23:19:08.662Z,20.32
2019-01-29T23:21:37.962Z,17.92
2019-01-29T23:24:07.196Z,18.50
2019-01-29T23:26:36.573Z,18.45
2019-01-29T23:29:05.764Z,16.60
2019-01-29T23:31:35.006Z,16.93
2019-01-29T23:34:04.119Z,17.90
2019-01-29T23:36:33.294Z,17.95
2019-01-29T23:39:02.529Z,16.10
2019-01-29T23:41:31.679Z,14.95
2019-01-29T23:44:00.800Z,15.93
2019-01-29T23:46:29.946Z,15.75
2019-01-29T23:48:59.063Z,14.05
2019-01-29T23:51:28.218Z,15.65
2019-01-29T23:53:57.635Z,14.85
2019-01-29T23:56:26.814Z,15.23
2019-01-29T23:58:56.104Z,15.10
